sensor_id;sensor_type;location;lat;lon;timestamp;temperature;humidity
9271;DHT22;4673;53.458;9.940;2023-03-05T00:01:31;2.70;77.00
9271;DHT22;4673;53.458;9.940;2023-03-05T00:04:01;2.70;76.70
9271;DHT22;4673;53.458;9.940;2023-03-05T00:06:28;2.60;77.10
9271;DHT22;4673;53.458;9.940;2023-03-05T00:08:54;2.60;77.20
9271;DHT22;4673;53.458;9.940;2023-03-05T00:11:22;2.50;77.20
9271;DHT22;4673;53.458;9.940;2023-03-05T00:13:53;2.50;77.30
9271;DHT22;4673;53.458;9.940;2023-03-05T00:16:20;2.50;77.40
9271;DHT22;4673;53.458;9.940;2023-03-05T00:18:45;2.40;77.30
9271;DHT22;4673;53.458;9.940;2023-03-05T00:21:32;2.50;77.50
9271;DHT22;4673;53.458;9.940;2023-03-05T00:24:00;2.50;77.60
9271;DHT22;4673;53.458;9.940;2023-03-05T00:26:27;2.50;77.70
9271;DHT22;4673;53.458;9.940;2023-03-05T00:28:54;2.50;77.40
9271;DHT22;4673;53.458;9.940;2023-03-05T00:31:25;2.50;77.40
9271;DHT22;4673;53.458;9.940;2023-03-05T00:33:55;2.50;77.30
9271;DHT22;4673;53.458;9.940;2023-03-05T00:36:21;2.50;77.50
9271;DHT22;4673;53.458;9.940;2023-03-05T00:38:47;2.60;77.40
9271;DHT22;4673;53.458;9.940;2023-03-05T00:41:13;2.60;76.90
9271;DHT22;4673;53.458;9.940;2023-03-05T00:43:38;2.60;77.10
9271;DHT22;4673;53.458;9.940;2023-03-05T00:46:04;2.60;77.20
9271;DHT22;4673;53.458;9.940;2023-03-05T00:48:30;2.70;77.50
9271;DHT22;4673;53.458;9.940;2023-03-05T00:50:55;2.70;77.60
9271;DHT22;4673;53.458;9.940;2023-03-05T00:53:21;2.70;77.60
9271;DHT22;4673;53.458;9.940;2023-03-05T00:55:47;2.70;77.90
9271;DHT22;4673;53.458;9.940;2023-03-05T00:58:13;2.60;78.20
9271;DHT22;4673;53.458;9.940;2023-03-05T01:00:39;2.60;78.70
9271;DHT22;4673;53.458;9.940;2023-03-05T01:03:04;2.50;79.00
9271;DHT22;4673;53.458;9.940;2023-03-05T01:05:30;2.40;79.60
9271;DHT22;4673;53.458;9.940;2023-03-05T01:07:56;2.30;80.80
9271;DHT22;4673;53.458;9.940;2023-03-05T01:10:23;2.20;81.60
9271;DHT22;4673;53.458;9.940;2023-03-05T01:12:52;2.20;82.30
9271;DHT22;4673;53.458;9.940;2023-03-05T01:15:17;2.20;82.70
9271;DHT22;4673;53.458;9.940;2023-03-05T01:17:43;2.10;83.20
9271;DHT22;4673;53.458;9.940;2023-03-05T01:20:11;2.00;84.50
9271;DHT22;4673;53.458;9.940;2023-03-05T01:22:38;1.90;85.10
9271;DHT22;4673;53.458;9.940;2023-03-05T01:25:04;1.90;85.60
9271;DHT22;4673;53.458;9.940;2023-03-05T01:27:29;1.90;86.00
9271;DHT22;4673;53.458;9.940;2023-03-05T01:29:55;2.00;86.10
9271;DHT22;4673;53.458;9.940;2023-03-05T01:32:20;1.90;86.10
9271;DHT22;4673;53.458;9.940;2023-03-05T01:34:46;1.90;86.60
9271;DHT22;4673;53.458;9.940;2023-03-05T01:37:12;1.80;86.80
9271;DHT22;4673;53.458;9.940;2023-03-05T01:39:37;1.70;87.10
9271;DHT22;4673;53.458;9.940;2023-03-05T01:42:04;1.80;87.70
9271;DHT22;4673;53.458;9.940;2023-03-05T01:44:32;1.80;88.00
9271;DHT22;4673;53.458;9.940;2023-03-05T01:46:58;1.70;88.30
9271;DHT22;4673;53.458;9.940;2023-03-05T01:49:39;1.80;88.60
9271;DHT22;4673;53.458;9.940;2023-03-05T01:52:18;1.80;88.70
9271;DHT22;4673;53.458;9.940;2023-03-05T01:54:51;1.90;89.20
9271;DHT22;4673;53.458;9.940;2023-03-05T01:57:27;1.90;89.30
9271;DHT22;4673;53.458;9.940;2023-03-05T02:00:01;1.90;89.10
9271;DHT22;4673;53.458;9.940;2023-03-05T02:02:30;2.00;89.00
9271;DHT22;4673;53.458;9.940;2023-03-05T02:05:02;2.10;89.30
9271;DHT22;4673;53.458;9.940;2023-03-05T02:07:29;2.10;89.10
9271;DHT22;4673;53.458;9.940;2023-03-05T02:09:55;2.10;88.60
9271;DHT22;4673;53.458;9.940;2023-03-05T02:12:21;2.00;88.70
9271;DHT22;4673;53.458;9.940;2023-03-05T02:14:49;2.00;89.00
9271;DHT22;4673;53.458;9.940;2023-03-05T02:17:16;2.00;89.00
9271;DHT22;4673;53.458;9.940;2023-03-05T02:19:57;2.00;89.30
9271;DHT22;4673;53.458;9.940;2023-03-05T02:22:27;1.90;89.50
9271;DHT22;4673;53.458;9.940;2023-03-05T02:24:53;1.80;90.00
9271;DHT22;4673;53.458;9.940;2023-03-05T02:27:22;1.80;90.80
9271;DHT22;4673;53.458;9.940;2023-03-05T02:29:49;1.80;91.60
9271;DHT22;4673;53.458;9.940;2023-03-05T02:32:16;1.80;91.90
9271;DHT22;4673;53.458;9.940;2023-03-05T02:34:42;1.70;92.20
9271;DHT22;4673;53.458;9.940;2023-03-05T02:37:07;1.70;92.40
9271;DHT22;4673;53.458;9.940;2023-03-05T02:39:34;1.70;93.00
9271;DHT22;4673;53.458;9.940;2023-03-05T02:42:00;1.60;93.20
9271;DHT22;4673;53.458;9.940;2023-03-05T02:44:26;1.60;93.70
9271;DHT22;4673;53.458;9.940;2023-03-05T02:46:52;1.60;94.00
9271;DHT22;4673;53.458;9.940;2023-03-05T02:49:17;1.60;94.30
9271;DHT22;4673;53.458;9.940;2023-03-05T02:51:43;1.50;94.50
9271;DHT22;4673;53.458;9.940;2023-03-05T02:54:09;1.50;95.10
9271;DHT22;4673;53.458;9.940;2023-03-05T02:56:34;1.60;95.40
9271;DHT22;4673;53.458;9.940;2023-03-05T02:59:02;1.60;95.70
9271;DHT22;4673;53.458;9.940;2023-03-05T03:01:28;1.70;95.90
9271;DHT22;4673;53.458;9.940;2023-03-05T03:03:54;1.70;96.00
9271;DHT22;4673;53.458;9.940;2023-03-05T03:06:19;1.80;96.00
9271;DHT22;4673;53.458;9.940;2023-03-05T03:08:45;1.80;96.10
9271;DHT22;4673;53.458;9.940;2023-03-05T03:11:11;1.70;95.60
9271;DHT22;4673;53.458;9.940;2023-03-05T03:13:37;1.70;95.30
9271;DHT22;4673;53.458;9.940;2023-03-05T03:16:05;1.50;95.30
9271;DHT22;4673;53.458;9.940;2023-03-05T03:18:31;1.40;95.20
9271;DHT22;4673;53.458;9.940;2023-03-05T03:20:57;1.30;95.20
9271;DHT22;4673;53.458;9.940;2023-03-05T03:23:23;1.20;95.00
9271;DHT22;4673;53.458;9.940;2023-03-05T03:25:48;1.10;95.20
9271;DHT22;4673;53.458;9.940;2023-03-05T03:28:14;1.20;95.60
9271;DHT22;4673;53.458;9.940;2023-03-05T03:30:40;1.10;95.70
9271;DHT22;4673;53.458;9.940;2023-03-05T03:33:05;1.00;95.60
9271;DHT22;4673;53.458;9.940;2023-03-05T03:35:31;0.90;95.90
9271;DHT22;4673;53.458;9.940;2023-03-05T03:37:57;0.90;96.20
9271;DHT22;4673;53.458;9.940;2023-03-05T03:40:23;0.90;96.20
9271;DHT22;4673;53.458;9.940;2023-03-05T03:42:51;0.80;96.30
9271;DHT22;4673;53.458;9.940;2023-03-05T03:45:16;0.80;96.40
9271;DHT22;4673;53.458;9.940;2023-03-05T03:47:42;0.70;96.60
9271;DHT22;4673;53.458;9.940;2023-03-05T03:50:08;0.60;96.80
9271;DHT22;4673;53.458;9.940;2023-03-05T03:52:34;0.70;97.20
9271;DHT22;4673;53.458;9.940;2023-03-05T03:54:59;0.60;97.20
9271;DHT22;4673;53.458;9.940;2023-03-05T03:57:29;0.60;97.20
9271;DHT22;4673;53.458;9.940;2023-03-05T03:59:55;0.70;97.60
9271;DHT22;4673;53.458;9.940;2023-03-05T04:02:21;0.60;97.70
9271;DHT22;4673;53.458;9.940;2023-03-05T04:04:47;0.80;97.90
9271;DHT22;4673;53.458;9.940;2023-03-05T04:07:13;0.80;98.00
9271;DHT22;4673;53.458;9.940;2023-03-05T04:09:38;0.90;98.00
9271;DHT22;4673;53.458;9.940;2023-03-05T04:12:04;0.90;98.00
9271;DHT22;4673;53.458;9.940;2023-03-05T04:14:30;1.00;98.10
9271;DHT22;4673;53.458;9.940;2023-03-05T04:16:56;1.00;98.00
9271;DHT22;4673;53.458;9.940;2023-03-05T04:19:21;1.00;98.00
9271;DHT22;4673;53.458;9.940;2023-03-05T04:21:47;1.10;98.10
9271;DHT22;4673;53.458;9.940;2023-03-05T04:24:13;1.20;98.10
9271;DHT22;4673;53.458;9.940;2023-03-05T04:26:39;1.30;98.20
9271;DHT22;4673;53.458;9.940;2023-03-05T04:29:08;1.30;98.00
9271;DHT22;4673;53.458;9.940;2023-03-05T04:31:33;1.30;97.60
9271;DHT22;4673;53.458;9.940;2023-03-05T04:33:59;1.40;97.60
9271;DHT22;4673;53.458;9.940;2023-03-05T04:36:25;1.40;97.30
9271;DHT22;4673;53.458;9.940;2023-03-05T04:38:50;1.40;97.10
9271;DHT22;4673;53.458;9.940;2023-03-05T04:41:16;1.40;97.00
9271;DHT22;4673;53.458;9.940;2023-03-05T04:43:42;1.40;97.00
9271;DHT22;4673;53.458;9.940;2023-03-05T04:46:07;1.20;96.60
9271;DHT22;4673;53.458;9.940;2023-03-05T04:48:33;1.20;96.50
9271;DHT22;4673;53.458;9.940;2023-03-05T04:50:59;1.10;96.50
9271;DHT22;4673;53.458;9.940;2023-03-05T04:53:24;1.20;96.70
9271;DHT22;4673;53.458;9.940;2023-03-05T04:55:53;1.20;96.80
9271;DHT22;4673;53.458;9.940;2023-03-05T04:58:19;1.20;96.80
9271;DHT22;4673;53.458;9.940;2023-03-05T05:00:45;1.30;97.00
9271;DHT22;4673;53.458;9.940;2023-03-05T05:03:11;1.30;96.90
9271;DHT22;4673;53.458;9.940;2023-03-05T05:05:36;1.40;97.00
9271;DHT22;4673;53.458;9.940;2023-03-05T05:08:02;1.40;96.60
9271;DHT22;4673;53.458;9.940;2023-03-05T05:10:31;1.40;96.30
9271;DHT22;4673;53.458;9.940;2023-03-05T05:12:57;1.40;96.20
9271;DHT22;4673;53.458;9.940;2023-03-05T05:15:23;1.30;96.00
9271;DHT22;4673;53.458;9.940;2023-03-05T05:17:48;1.30;96.00
9271;DHT22;4673;53.458;9.940;2023-03-05T05:20:15;1.30;96.00
9271;DHT22;4673;53.458;9.940;2023-03-05T05:22:42;1.40;96.10
9271;DHT22;4673;53.458;9.940;2023-03-05T05:25:08;1.40;95.80
9271;DHT22;4673;53.458;9.940;2023-03-05T05:27:35;1.30;95.50
9271;DHT22;4673;53.458;9.940;2023-03-05T05:30:01;1.30;95.80
9271;DHT22;4673;53.458;9.940;2023-03-05T05:32:28;1.20;95.80
9271;DHT22;4673;53.458;9.940;2023-03-05T05:34:55;1.10;95.80
9271;DHT22;4673;53.458;9.940;2023-03-05T05:37:21;1.20;96.00
9271;DHT22;4673;53.458;9.940;2023-03-05T05:39:47;1.20;96.10
9271;DHT22;4673;53.458;9.940;2023-03-05T05:42:19;1.10;95.90
9271;DHT22;4673;53.458;9.940;2023-03-05T05:44:46;1.10;95.90
9271;DHT22;4673;53.458;9.940;2023-03-05T05:47:13;1.10;96.10
9271;DHT22;4673;53.458;9.940;2023-03-05T05:49:38;1.00;96.00
9271;DHT22;4673;53.458;9.940;2023-03-05T05:52:04;1.00;96.00
9271;DHT22;4673;53.458;9.940;2023-03-05T05:54:30;1.10;96.30
9271;DHT22;4673;53.458;9.940;2023-03-05T05:56:56;1.00;95.80
9271;DHT22;4673;53.458;9.940;2023-03-05T05:59:21;1.00;95.90
9271;DHT22;4673;53.458;9.940;2023-03-05T06:01:47;1.00;96.00
9271;DHT22;4673;53.458;9.940;2023-03-05T06:04:12;1.00;95.80
9271;DHT22;4673;53.458;9.940;2023-03-05T06:06:38;1.00;95.90
9271;DHT22;4673;53.458;9.940;2023-03-05T06:09:04;0.90;96.20
9271;DHT22;4673;53.458;9.940;2023-03-05T06:11:30;1.10;96.40
9271;DHT22;4673;53.458;9.940;2023-03-05T06:13:56;1.20;96.30
9271;DHT22;4673;53.458;9.940;2023-03-05T06:16:23;1.20;96.10
9271;DHT22;4673;53.458;9.940;2023-03-05T06:18:50;1.30;95.90
9271;DHT22;4673;53.458;9.940;2023-03-05T06:21:17;1.30;95.90
9271;DHT22;4673;53.458;9.940;2023-03-05T06:23:44;1.30;95.70
9271;DHT22;4673;53.458;9.940;2023-03-05T06:26:12;1.30;95.30
9271;DHT22;4673;53.458;9.940;2023-03-05T06:28:38;1.30;95.50
9271;DHT22;4673;53.458;9.940;2023-03-05T06:31:09;1.40;95.70
9271;DHT22;4673;53.458;9.940;2023-03-05T06:33:35;1.50;95.80
9271;DHT22;4673;53.458;9.940;2023-03-05T06:36:03;1.50;95.30
9271;DHT22;4673;53.458;9.940;2023-03-05T06:38:29;1.40;95.20
9271;DHT22;4673;53.458;9.940;2023-03-05T06:40:54;1.50;95.70
9271;DHT22;4673;53.458;9.940;2023-03-05T06:43:20;1.60;95.50
9271;DHT22;4673;53.458;9.940;2023-03-05T06:45:45;1.70;95.90
9271;DHT22;4673;53.458;9.940;2023-03-05T06:48:11;1.80;95.80
9271;DHT22;4673;53.458;9.940;2023-03-05T06:50:37;1.80;95.30
9271;DHT22;4673;53.458;9.940;2023-03-05T06:53:03;1.80;95.10
9271;DHT22;4673;53.458;9.940;2023-03-05T06:55:28;1.80;94.90
9271;DHT22;4673;53.458;9.940;2023-03-05T06:57:54;1.80;95.30
9271;DHT22;4673;53.458;9.940;2023-03-05T07:00:20;1.90;94.90
9271;DHT22;4673;53.458;9.940;2023-03-05T07:02:46;1.80;94.40
9271;DHT22;4673;53.458;9.940;2023-03-05T07:05:12;1.70;94.60
9271;DHT22;4673;53.458;9.940;2023-03-05T07:07:38;1.80;95.00
9271;DHT22;4673;53.458;9.940;2023-03-05T07:10:04;1.80;94.80
9271;DHT22;4673;53.458;9.940;2023-03-05T07:12:32;1.80;94.30
9271;DHT22;4673;53.458;9.940;2023-03-05T07:14:58;1.70;94.10
9271;DHT22;4673;53.458;9.940;2023-03-05T07:17:25;1.80;94.60
9271;DHT22;4673;53.458;9.940;2023-03-05T07:19:51;1.90;94.40
9271;DHT22;4673;53.458;9.940;2023-03-05T07:22:17;1.80;94.00
9271;DHT22;4673;53.458;9.940;2023-03-05T07:24:42;1.70;93.90
9271;DHT22;4673;53.458;9.940;2023-03-05T07:27:08;1.90;94.90
9271;DHT22;4673;53.458;9.940;2023-03-05T07:29:34;1.80;94.40
9271;DHT22;4673;53.458;9.940;2023-03-05T07:31:59;1.90;94.80
9271;DHT22;4673;53.458;9.940;2023-03-05T07:34:25;2.00;94.90
9271;DHT22;4673;53.458;9.940;2023-03-05T07:36:51;2.00;94.10
9271;DHT22;4673;53.458;9.940;2023-03-05T07:39:17;2.00;94.00
9271;DHT22;4673;53.458;9.940;2023-03-05T07:41:44;2.30;94.80
9271;DHT22;4673;53.458;9.940;2023-03-05T07:44:11;2.50;94.30
9271;DHT22;4673;53.458;9.940;2023-03-05T07:46:36;2.70;94.40
9271;DHT22;4673;53.458;9.940;2023-03-05T07:49:02;2.80;92.60
9271;DHT22;4673;53.458;9.940;2023-03-05T07:51:28;2.90;92.70
9271;DHT22;4673;53.458;9.940;2023-03-05T07:53:55;3.00;91.70
9271;DHT22;4673;53.458;9.940;2023-03-05T07:56:30;3.10;91.40
9271;DHT22;4673;53.458;9.940;2023-03-05T07:58:57;3.10;89.90
9271;DHT22;4673;53.458;9.940;2023-03-05T08:01:23;3.10;89.90
9271;DHT22;4673;53.458;9.940;2023-03-05T08:03:49;3.10;89.50
9271;DHT22;4673;53.458;9.940;2023-03-05T08:06:14;2.90;88.60
9271;DHT22;4673;53.458;9.940;2023-03-05T08:08:40;2.70;88.10
9271;DHT22;4673;53.458;9.940;2023-03-05T08:11:08;2.60;89.20
9271;DHT22;4673;53.458;9.940;2023-03-05T08:13:35;2.60;89.10
9271;DHT22;4673;53.458;9.940;2023-03-05T08:16:15;2.60;89.00
9271;DHT22;4673;53.458;9.940;2023-03-05T08:18:45;2.50;88.50
9271;DHT22;4673;53.458;9.940;2023-03-05T08:21:22;2.30;89.10
9271;DHT22;4673;53.458;9.940;2023-03-05T08:23:51;2.20;90.10
9271;DHT22;4673;53.458;9.940;2023-03-05T08:26:19;2.30;90.90
9271;DHT22;4673;53.458;9.940;2023-03-05T08:28:46;2.50;91.00
9271;DHT22;4673;53.458;9.940;2023-03-05T08:31:13;2.70;90.00
9271;DHT22;4673;53.458;9.940;2023-03-05T08:33:39;2.90;90.10
9271;DHT22;4673;53.458;9.940;2023-03-05T08:36:06;2.90;89.10
9271;DHT22;4673;53.458;9.940;2023-03-05T08:38:32;3.30;89.50
9271;DHT22;4673;53.458;9.940;2023-03-05T08:40:58;3.40;88.30
9271;DHT22;4673;53.458;9.940;2023-03-05T08:43:24;3.40;85.00
9271;DHT22;4673;53.458;9.940;2023-03-05T08:45:49;3.40;85.60
9271;DHT22;4673;53.458;9.940;2023-03-05T08:48:16;3.50;85.10
9271;DHT22;4673;53.458;9.940;2023-03-05T08:50:41;3.70;85.20
9271;DHT22;4673;53.458;9.940;2023-03-05T08:53:07;3.70;84.50
9271;DHT22;4673;53.458;9.940;2023-03-05T08:55:33;3.70;83.60
9271;DHT22;4673;53.458;9.940;2023-03-05T08:57:58;3.70;84.10
9271;DHT22;4673;53.458;9.940;2023-03-05T09:00:24;3.60;83.50
9271;DHT22;4673;53.458;9.940;2023-03-05T09:02:50;3.60;82.20
9271;DHT22;4673;53.458;9.940;2023-03-05T09:05:16;3.60;82.50
9271;DHT22;4673;53.458;9.940;2023-03-05T09:07:43;3.40;81.50
9271;DHT22;4673;53.458;9.940;2023-03-05T09:10:10;3.40;82.10
9271;DHT22;4673;53.458;9.940;2023-03-05T09:12:38;3.40;81.80
9271;DHT22;4673;53.458;9.940;2023-03-05T09:15:05;3.60;82.20
9271;DHT22;4673;53.458;9.940;2023-03-05T09:17:33;3.70;81.30
9271;DHT22;4673;53.458;9.940;2023-03-05T09:19:59;3.90;80.80
9271;DHT22;4673;53.458;9.940;2023-03-05T09:22:25;4.10;80.70
9271;DHT22;4673;53.458;9.940;2023-03-05T09:24:51;4.30;80.60
9271;DHT22;4673;53.458;9.940;2023-03-05T09:27:16;4.50;79.60
9271;DHT22;4673;53.458;9.940;2023-03-05T09:29:42;4.80;78.50
9271;DHT22;4673;53.458;9.940;2023-03-05T09:32:08;5.10;77.70
9271;DHT22;4673;53.458;9.940;2023-03-05T09:34:33;5.10;75.30
9271;DHT22;4673;53.458;9.940;2023-03-05T09:36:59;5.20;74.40
9271;DHT22;4673;53.458;9.940;2023-03-05T09:39:25;5.20;73.80
9271;DHT22;4673;53.458;9.940;2023-03-05T09:50:42;4.80;75.00
9271;DHT22;4673;53.458;9.940;2023-03-05T09:53:29;4.90;74.00
9271;DHT22;4673;53.458;9.940;2023-03-05T09:56:09;4.50;73.00
9271;DHT22;4673;53.458;9.940;2023-03-05T09:58:37;4.30;74.30
9271;DHT22;4673;53.458;9.940;2023-03-05T10:01:07;4.20;74.30
9271;DHT22;4673;53.458;9.940;2023-03-05T10:03:56;4.00;75.20
9271;DHT22;4673;53.458;9.940;2023-03-05T10:09:44;4.40;75.50
9271;DHT22;4673;53.458;9.940;2023-03-05T10:12:31;4.30;73.30
9271;DHT22;4673;53.458;9.940;2023-03-05T10:15:08;4.20;74.00
9271;DHT22;4673;53.458;9.940;2023-03-05T10:17:46;4.30;73.20
9271;DHT22;4673;53.458;9.940;2023-03-05T10:28:28;4.10;73.50
9271;DHT22;4673;53.458;9.940;2023-03-05T10:36:28;4.90;74.50
9271;DHT22;4673;53.458;9.940;2023-03-05T10:44:45;4.30;75.00
9271;DHT22;4673;53.458;9.940;2023-03-05T10:47:20;4.00;75.30
9271;DHT22;4673;53.458;9.940;2023-03-05T10:52:49;3.30;77.10
9271;DHT22;4673;53.458;9.940;2023-03-05T10:55:21;3.30;77.70
9271;DHT22;4673;53.458;9.940;2023-03-05T10:57:52;3.30;77.40
9271;DHT22;4673;53.458;9.940;2023-03-05T11:00:24;3.40;77.70
9271;DHT22;4673;53.458;9.940;2023-03-05T11:03:09;3.60;77.80
9271;DHT22;4673;53.458;9.940;2023-03-05T11:08:29;3.90;76.70
9271;DHT22;4673;53.458;9.940;2023-03-05T11:13:35;3.90;76.80
9271;DHT22;4673;53.458;9.940;2023-03-05T11:16:05;4.10;75.70
9271;DHT22;4673;53.458;9.940;2023-03-05T11:18:34;3.90;74.30
9271;DHT22;4673;53.458;9.940;2023-03-05T11:21:09;4.00;73.90
9271;DHT22;4673;53.458;9.940;2023-03-05T11:23:36;4.20;73.00
9271;DHT22;4673;53.458;9.940;2023-03-05T11:26:21;4.20;68.10
9271;DHT22;4673;53.458;9.940;2023-03-05T11:31:25;4.50;68.40
9271;DHT22;4673;53.458;9.940;2023-03-05T11:36:28;5.00;63.30
9271;DHT22;4673;53.458;9.940;2023-03-05T11:38:58;4.80;63.10
9271;DHT22;4673;53.458;9.940;2023-03-05T11:41:31;4.90;62.40
9271;DHT22;4673;53.458;9.940;2023-03-05T11:44:00;4.70;58.30
9271;DHT22;4673;53.458;9.940;2023-03-05T11:46:37;4.70;57.60
9271;DHT22;4673;53.458;9.940;2023-03-05T11:49:04;4.60;56.80
9271;DHT22;4673;53.458;9.940;2023-03-05T11:54:35;5.10;56.60
9271;DHT22;4673;53.458;9.940;2023-03-05T11:57:05;5.30;54.60
9271;DHT22;4673;53.458;9.940;2023-03-05T11:59:33;5.40;52.90
9271;DHT22;4673;53.458;9.940;2023-03-05T12:02:15;5.40;53.00
9271;DHT22;4673;53.458;9.940;2023-03-05T12:04:42;5.00;51.90
9271;DHT22;4673;53.458;9.940;2023-03-05T12:07:12;5.00;53.20
9271;DHT22;4673;53.458;9.940;2023-03-05T12:09:43;5.00;53.40
9271;DHT22;4673;53.458;9.940;2023-03-05T12:15:19;5.10;53.70
9271;DHT22;4673;53.458;9.940;2023-03-05T12:18:26;5.00;54.80
9271;DHT22;4673;53.458;9.940;2023-03-05T12:21:13;5.20;55.20
9271;DHT22;4673;53.458;9.940;2023-03-05T12:26:17;5.30;52.20
9271;DHT22;4673;53.458;9.940;2023-03-05T12:31:28;5.30;51.50
9271;DHT22;4673;53.458;9.940;2023-03-05T12:33:58;4.90;50.70
9271;DHT22;4673;53.458;9.940;2023-03-05T12:36:33;4.70;52.40
9271;DHT22;4673;53.458;9.940;2023-03-05T12:39:00;4.60;55.20
9271;DHT22;4673;53.458;9.940;2023-03-05T12:46:37;4.40;66.30
9271;DHT22;4673;53.458;9.940;2023-03-05T12:51:56;3.90;69.10
9271;DHT22;4673;53.458;9.940;2023-03-05T12:54:38;3.80;69.30
9271;DHT22;4673;53.458;9.940;2023-03-05T12:57:23;3.90;71.40
9271;DHT22;4673;53.458;9.940;2023-03-05T13:00:02;4.00;69.10
9271;DHT22;4673;53.458;9.940;2023-03-05T13:02:43;4.20;70.90
9271;DHT22;4673;53.458;9.940;2023-03-05T13:05:23;4.10;71.30
9271;DHT22;4673;53.458;9.940;2023-03-05T13:07:50;4.10;71.60
9271;DHT22;4673;53.458;9.940;2023-03-05T13:10:25;4.20;72.30
9271;DHT22;4673;53.458;9.940;2023-03-05T13:12:52;4.20;71.70
9271;DHT22;4673;53.458;9.940;2023-03-05T13:15:18;4.30;72.70
9271;DHT22;4673;53.458;9.940;2023-03-05T13:17:59;4.20;70.20
9271;DHT22;4673;53.458;9.940;2023-03-05T13:20:39;4.30;71.30
9271;DHT22;4673;53.458;9.940;2023-03-05T13:25:44;4.20;69.90
9271;DHT22;4673;53.458;9.940;2023-03-05T13:28:12;4.40;70.90
9271;DHT22;4673;53.458;9.940;2023-03-05T13:30:49;4.60;71.10
9271;DHT22;4673;53.458;9.940;2023-03-05T13:33:18;4.80;71.30
9271;DHT22;4673;53.458;9.940;2023-03-05T13:35:45;4.70;69.60
9271;DHT22;4673;53.458;9.940;2023-03-05T13:38:31;4.50;70.00
9271;DHT22;4673;53.458;9.940;2023-03-05T13:46:11;4.60;69.30
9271;DHT22;4673;53.458;9.940;2023-03-05T13:48:37;4.60;69.90
9271;DHT22;4673;53.458;9.940;2023-03-05T13:51:03;4.70;69.20
9271;DHT22;4673;53.458;9.940;2023-03-05T13:53:33;4.70;70.10
9271;DHT22;4673;53.458;9.940;2023-03-05T13:56:02;4.80;70.40
9271;DHT22;4673;53.458;9.940;2023-03-05T14:01:15;4.90;69.40
9271;DHT22;4673;53.458;9.940;2023-03-05T14:03:42;5.00;69.80
9271;DHT22;4673;53.458;9.940;2023-03-05T14:06:10;5.20;69.60
9271;DHT22;4673;53.458;9.940;2023-03-05T14:08:36;5.10;68.40
9271;DHT22;4673;53.458;9.940;2023-03-05T14:11:16;5.00;68.30
9271;DHT22;4673;53.458;9.940;2023-03-05T14:13:42;4.80;69.30
9271;DHT22;4673;53.458;9.940;2023-03-05T14:16:25;4.70;70.40
9271;DHT22;4673;53.458;9.940;2023-03-05T14:18:54;4.90;71.10
9271;DHT22;4673;53.458;9.940;2023-03-05T14:21:21;5.10;69.50
9271;DHT22;4673;53.458;9.940;2023-03-05T14:23:48;5.00;68.20
9271;DHT22;4673;53.458;9.940;2023-03-05T14:29:01;4.80;66.50
9271;DHT22;4673;53.458;9.940;2023-03-05T14:31:29;4.70;67.20
9271;DHT22;4673;53.458;9.940;2023-03-05T14:34:04;4.50;67.70
9271;DHT22;4673;53.458;9.940;2023-03-05T14:36:31;4.40;69.00
9271;DHT22;4673;53.458;9.940;2023-03-05T14:38:58;4.30;69.50
9271;DHT22;4673;53.458;9.940;2023-03-05T14:41:32;4.50;71.10
9271;DHT22;4673;53.458;9.940;2023-03-05T14:43:59;4.40;71.50
9271;DHT22;4673;53.458;9.940;2023-03-05T14:46:25;4.40;71.00
9271;DHT22;4673;53.458;9.940;2023-03-05T14:48:51;4.40;70.50
9271;DHT22;4673;53.458;9.940;2023-03-05T14:51:17;4.50;71.10
9271;DHT22;4673;53.458;9.940;2023-03-05T14:53:44;4.40;69.50
9271;DHT22;4673;53.458;9.940;2023-03-05T14:58:42;4.40;69.50
9271;DHT22;4673;53.458;9.940;2023-03-05T15:01:11;4.40;70.50
9271;DHT22;4673;53.458;9.940;2023-03-05T15:03:36;4.40;70.60
9271;DHT22;4673;53.458;9.940;2023-03-05T15:06:05;4.40;70.80
9271;DHT22;4673;53.458;9.940;2023-03-05T15:08:32;4.40;70.60
9271;DHT22;4673;53.458;9.940;2023-03-05T15:10:59;4.40;69.80
9271;DHT22;4673;53.458;9.940;2023-03-05T15:13:25;4.60;69.60
9271;DHT22;4673;53.458;9.940;2023-03-05T15:15:52;4.40;70.70
9271;DHT22;4673;53.458;9.940;2023-03-05T15:18:19;4.40;70.80
9271;DHT22;4673;53.458;9.940;2023-03-05T15:20:46;4.40;71.00
9271;DHT22;4673;53.458;9.940;2023-03-05T15:23:13;4.40;71.60
9271;DHT22;4673;53.458;9.940;2023-03-05T15:25:39;4.40;71.80
9271;DHT22;4673;53.458;9.940;2023-03-05T15:28:07;4.40;72.00
9271;DHT22;4673;53.458;9.940;2023-03-05T15:30:36;4.40;72.40
9271;DHT22;4673;53.458;9.940;2023-03-05T15:33:08;4.50;72.90
9271;DHT22;4673;53.458;9.940;2023-03-05T15:35:34;4.60;72.50
9271;DHT22;4673;53.458;9.940;2023-03-05T15:38:00;4.60;71.20
9271;DHT22;4673;53.458;9.940;2023-03-05T15:40:26;4.50;72.00
9271;DHT22;4673;53.458;9.940;2023-03-05T15:42:53;4.20;71.80
9271;DHT22;4673;53.458;9.940;2023-03-05T15:45:19;3.90;73.10
9271;DHT22;4673;53.458;9.940;2023-03-05T15:47:48;3.60;74.00
9271;DHT22;4673;53.458;9.940;2023-03-05T15:50:14;3.80;75.20
9271;DHT22;4673;53.458;9.940;2023-03-05T15:52:40;3.70;75.60
9271;DHT22;4673;53.458;9.940;2023-03-05T15:55:06;3.80;75.50
9271;DHT22;4673;53.458;9.940;2023-03-05T15:57:35;3.90;76.40
9271;DHT22;4673;53.458;9.940;2023-03-05T16:00:01;4.00;76.80
9271;DHT22;4673;53.458;9.940;2023-03-05T16:02:31;3.70;75.90
9271;DHT22;4673;53.458;9.940;2023-03-05T16:04:56;3.40;77.90
9271;DHT22;4673;53.458;9.940;2023-03-05T16:07:22;3.40;79.30
9271;DHT22;4673;53.458;9.940;2023-03-05T16:09:49;3.50;80.80
9271;DHT22;4673;53.458;9.940;2023-03-05T16:12:19;3.50;81.10
9271;DHT22;4673;53.458;9.940;2023-03-05T16:14:46;3.50;81.00
9271;DHT22;4673;53.458;9.940;2023-03-05T16:17:12;3.00;80.50
9271;DHT22;4673;53.458;9.940;2023-03-05T16:19:41;3.10;82.40
9271;DHT22;4673;53.458;9.940;2023-03-05T16:22:08;2.90;81.70
9271;DHT22;4673;53.458;9.940;2023-03-05T16:24:33;2.80;82.60
9271;DHT22;4673;53.458;9.940;2023-03-05T16:26:59;2.70;83.00
9271;DHT22;4673;53.458;9.940;2023-03-05T16:29:25;2.80;83.90
9271;DHT22;4673;53.458;9.940;2023-03-05T16:31:53;2.70;83.20
9271;DHT22;4673;53.458;9.940;2023-03-05T16:34:18;2.70;83.90
9271;DHT22;4673;53.458;9.940;2023-03-05T16:36:49;2.80;84.60
9271;DHT22;4673;53.458;9.940;2023-03-05T16:39:17;2.80;84.90
9271;DHT22;4673;53.458;9.940;2023-03-05T16:41:43;2.60;84.60
9271;DHT22;4673;53.458;9.940;2023-03-05T16:44:09;2.60;85.60
9271;DHT22;4673;53.458;9.940;2023-03-05T16:46:36;2.50;86.20
9271;DHT22;4673;53.458;9.940;2023-03-05T16:49:02;2.60;87.30
9271;DHT22;4673;53.458;9.940;2023-03-05T16:51:28;2.70;88.10
9271;DHT22;4673;53.458;9.940;2023-03-05T16:53:54;2.80;88.80
9271;DHT22;4673;53.458;9.940;2023-03-05T16:56:20;2.90;89.30
9271;DHT22;4673;53.458;9.940;2023-03-05T16:58:46;2.90;88.80
9271;DHT22;4673;53.458;9.940;2023-03-05T17:01:15;3.00;89.10
9271;DHT22;4673;53.458;9.940;2023-03-05T17:03:41;2.90;89.10
9271;DHT22;4673;53.458;9.940;2023-03-05T17:06:19;2.80;88.90
9271;DHT22;4673;53.458;9.940;2023-03-05T17:08:46;2.60;88.40
9271;DHT22;4673;53.458;9.940;2023-03-05T17:11:14;2.40;88.80
9271;DHT22;4673;53.458;9.940;2023-03-05T17:13:40;2.30;89.30
9271;DHT22;4673;53.458;9.940;2023-03-05T17:16:07;2.10;89.70
9271;DHT22;4673;53.458;9.940;2023-03-05T17:18:32;2.20;90.80
9271;DHT22;4673;53.458;9.940;2023-03-05T17:21:00;2.20;91.70
9271;DHT22;4673;53.458;9.940;2023-03-05T17:23:25;2.20;91.70
9271;DHT22;4673;53.458;9.940;2023-03-05T17:25:51;2.20;92.40
9271;DHT22;4673;53.458;9.940;2023-03-05T17:28:17;2.30;93.20
9271;DHT22;4673;53.458;9.940;2023-03-05T17:30:43;2.30;93.50
9271;DHT22;4673;53.458;9.940;2023-03-05T17:33:09;2.30;93.80
9271;DHT22;4673;53.458;9.940;2023-03-05T17:35:35;2.30;94.00
9271;DHT22;4673;53.458;9.940;2023-03-05T17:38:03;2.30;94.50
9271;DHT22;4673;53.458;9.940;2023-03-05T17:40:29;2.30;94.80
9271;DHT22;4673;53.458;9.940;2023-03-05T17:42:55;2.30;94.90